Ozan, Arkansas
Current Conditions -  °F | °C
As of 4:38 AM on Friday 21 Nov 2014 (Local Time) from KTXK Reporting Station
Haze Haze  
Wind Chill: 52°   Ceiling: 1700
Heat Index: 52°   Visibility: 2mi
Dew Point: 52°   Wind: 3mph
Humidity: 100%   Direction: 100°E
Pressure: 30.15"   Gusts: NA
Location:  33.85°N, 93.72°W
Report Text: KTXK 211038Z AUTO 10003KT 2SM BR OVC017 11/11 A3015 RMK AO2 T01110111
Loading
Personal Weather Stations






























Interactive Weather Map New forecast layout! Learn more

10-Day Weather Forecast

Advertisements
Track Severe Weather on mobile